This is the latest recevied weather packets stored in our database for station/object IZ7EXI-13. If no packets are shown the sender has not sent any weather packets the latest 10 day(s).
| Time | Temp. | Humidity | Pressure | Rain* | Wind** | Luminosity | Snow |
|---|---|---|---|---|---|---|---|
| 1777494132 | 18.89° C | 81% | 1017.4 hPa | - | - | - | - |
| 1777493231 | 18.89° C | 83% | 1017.4 hPa | - | - | - | - |
| 1777492331 | 18.89° C | 84% | 1017.3 hPa | - | - | - | - |
| 1777491431 | 18.89° C | 81% | 1017.1 hPa | - | - | - | - |
| 1777490531 | 19.44° C | 80% | 1017 hPa | - | - | - | - |
| 1777489631 | 19.44° C | 78% | 1016.9 hPa | - | - | - | - |
| 1777488730 | 20.56° C | 72% | 1016.5 hPa | - | - | - | - |
| 1777487830 | 22.22° C | 51% | 1016 hPa | - | - | - | - |
| 1777486929 | 22.22° C | 50% | 1016 hPa | - | - | - | - |
| 1777486029 | 22.22° C | 50% | 1015.9 hPa | - | - | - | - |
| 1777485129 | 22.78° C | 50% | 1015.7 hPa | - | - | - | - |
| 1777484263 | 23.89° C | 49% | 1015.5 hPa | - | - | - | - |
| 1777484228 | 23.89° C | 49% | 1015.5 hPa | - | - | - | - |
| 1777483328 | 26.11° C | 42% | 1015.4 hPa | - | - | - | - |
| 1777482428 | 27.22° C | 37% | 1015.4 hPa | - | - | - | - |
| 1777481528 | 27.78° C | 35% | 1015.4 hPa | - | - | - | - |
| 1777481456 | 28.33° C | 37% | 1015.4 hPa | - | - | - | - |
| 1777480651 | 28.33° C | 37% | 1015.4 hPa | - | - | - | - |
| 1777480628 | 28.33° C | 37% | 1015.4 hPa | - | - | - | - |
| 1777479761 | 29.44° C | 38% | 1015.4 hPa | - | - | - | - |
| 1777479727 | 29.44° C | 38% | 1015.4 hPa | - | - | - | - |
| 1777478860 | 30° C | 39% | 1015.6 hPa | - | - | - | - |
| 1777478827 | 30° C | 39% | 1015.6 hPa | - | - | - | - |
| 1777477926 | 30° C | 38% | 1015.6 hPa | - | - | - | - |
| 1777477026 | 30.56° C | 37% | 1015.7 hPa | - | - | - | - |
* Rain since midnight (hover to see other rain measurements)
** Current wind speed in m/s (hover to see current wind gust speed)